createdAt,value
2023-02-05T00:02:03.385Z,103630.91
2023-02-05T00:04:29.857Z,103633.63
2023-02-05T00:06:56.257Z,103623.25
2023-02-05T00:09:22.664Z,103622.34
2023-02-05T00:11:49.055Z,103624.84
2023-02-05T00:14:15.521Z,103616.94
2023-02-05T00:16:41.946Z,103619.50
2023-02-05T00:19:08.359Z,103608.06
2023-02-05T00:21:34.756Z,103602.75
2023-02-05T00:24:01.177Z,103597.22
2023-02-05T00:26:27.594Z,103586.81
2023-02-05T00:28:54.018Z,103577.78
2023-02-05T00:31:21.671Z,103574.41
2023-02-05T00:33:48.449Z,103565.69
2023-02-05T00:36:14.919Z,103568.09
2023-02-05T00:38:41.958Z,103565.22
2023-02-05T00:41:08.368Z,103555.28
2023-02-05T00:43:34.735Z,103550.59
2023-02-05T00:46:01.291Z,103560.28
2023-02-05T00:48:27.681Z,103565.53
2023-02-05T00:50:54.094Z,103559.38
2023-02-05T00:53:20.589Z,103544.28
2023-02-05T00:55:46.995Z,103546.97
2023-02-05T00:58:13.409Z,103533.69
2023-02-05T01:00:39.966Z,103529.09
2023-02-05T01:03:06.379Z,103520.09
2023-02-05T01:05:36.004Z,103517.69
2023-02-05T01:08:02.732Z,103522.94
2023-02-05T01:10:29.178Z,103525.81
2023-02-05T01:12:55.612Z,103515.47
2023-02-05T01:15:22.105Z,103508.44
2023-02-05T01:17:48.516Z,103501.38
2023-02-05T01:20:15.463Z,103494.16
2023-02-05T01:22:41.915Z,103496.50
2023-02-05T01:25:08.606Z,103506.09
2023-02-05T01:27:35.043Z,103488.59
2023-02-05T01:30:01.534Z,103474.59
2023-02-05T01:32:28.857Z,103474.06
2023-02-05T01:34:55.373Z,103482.84
2023-02-05T01:37:21.917Z,103464.28
2023-02-05T01:39:48.435Z,103458.00
2023-02-05T01:42:22.459Z,103457.09
2023-02-05T01:45:22.707Z,103454.47
2023-02-05T01:47:49.960Z,103448.22
2023-02-05T01:50:17.314Z,103451.47
2023-02-05T01:52:43.700Z,103457.56
2023-02-05T01:55:10.097Z,103470.03
2023-02-05T01:57:36.505Z,103464.97
2023-02-05T02:00:04.874Z,103467.41
2023-02-05T02:02:31.276Z,103458.47
2023-02-05T02:05:00.490Z,103450.19
2023-02-05T02:07:26.916Z,103452.06
2023-02-05T02:09:53.290Z,103456.50
2023-02-05T02:12:22.448Z,103462.81
2023-02-05T02:14:49.703Z,103475.94
2023-02-05T02:17:16.188Z,103475.38
2023-02-05T02:19:53.794Z,103468.50
2023-02-05T02:22:54.328Z,103483.47
2023-02-05T02:25:26.606Z,103473.78
2023-02-05T02:28:02.147Z,103479.00
2023-02-05T02:30:40.746Z,103474.59
2023-02-05T02:33:30.147Z,103469.53
2023-02-05T02:36:11.676Z,103462.66
2023-02-05T02:38:52.621Z,103457.41
2023-02-05T02:41:24.088Z,103452.97
2023-02-05T02:43:58.133Z,103455.41
2023-02-05T02:46:33.302Z,103462.47
2023-02-05T02:49:01.546Z,103460.66
2023-02-05T02:51:28.070Z,103448.53
2023-02-05T02:53:56.633Z,103446.00
2023-02-05T02:56:23.449Z,103447.78
2023-02-05T02:59:02.754Z,103438.13
2023-02-05T03:01:30.377Z,103451.16
2023-02-05T03:03:59.219Z,103458.03
2023-02-05T03:06:25.597Z,103457.22
2023-02-05T03:08:58.160Z,103455.50
2023-02-05T03:11:24.548Z,103446.91
2023-02-05T03:13:50.944Z,103445.25
2023-02-05T03:16:17.443Z,103443.28
2023-02-05T03:18:43.871Z,103438.03
2023-02-05T03:21:15.391Z,103425.00
2023-02-05T03:23:41.787Z,103420.63
2023-02-05T03:26:28.956Z,103418.84
2023-02-05T03:28:56.260Z,103414.56
2023-02-05T03:31:25.611Z,103413.94
2023-02-05T03:34:10.972Z,103413.94
2023-02-05T03:37:13.052Z,103401.84
2023-02-05T03:39:45.332Z,103404.38
2023-02-05T03:42:31.903Z,103397.31
2023-02-05T03:45:01.210Z,103392.06
2023-02-05T03:47:35.744Z,103388.41
2023-02-05T03:50:16.164Z,103384.19
2023-02-05T03:52:45.594Z,103370.25
2023-02-05T03:55:20.249Z,103362.53
2023-02-05T03:58:20.990Z,103368.16
2023-02-05T04:00:47.389Z,103370.16
2023-02-05T04:03:14.654Z,103377.28
2023-02-05T04:05:41.053Z,103375.56
2023-02-05T04:08:07.452Z,103375.69
2023-02-05T04:10:33.824Z,103374.97
2023-02-05T04:13:00.235Z,103385.47
2023-02-05T04:15:26.677Z,103381.03
2023-02-05T04:17:53.080Z,103385.63
2023-02-05T04:20:19.558Z,103381.28
2023-02-05T04:22:45.952Z,103378.56
2023-02-05T04:25:12.344Z,103373.41
2023-02-05T04:27:38.726Z,103369.06
2023-02-05T04:30:05.416Z,103364.78
2023-02-05T04:32:31.814Z,103360.56
2023-02-05T04:34:58.236Z,103344.78
2023-02-05T04:37:24.613Z,103343.84
2023-02-05T04:39:51.138Z,103334.09
2023-02-05T04:42:17.532Z,103331.53
2023-02-05T04:44:43.945Z,103324.59
2023-02-05T04:47:10.379Z,103321.84
2023-02-05T04:49:36.792Z,103325.31
2023-02-05T04:52:03.219Z,103318.25
2023-02-05T04:54:29.634Z,103316.34
2023-02-05T04:56:56.018Z,103311.09
2023-02-05T04:59:22.425Z,103312.09
2023-02-05T05:01:48.963Z,103317.34
2023-02-05T05:04:15.378Z,103319.97
2023-02-05T05:06:41.764Z,103313.88
2023-02-05T05:09:08.174Z,103312.09
2023-02-05T05:11:34.556Z,103310.28
2023-02-05T05:14:00.949Z,103316.44
2023-02-05T05:16:27.363Z,103300.50
2023-02-05T05:18:53.747Z,103294.34
2023-02-05T05:21:20.166Z,103289.94
2023-02-05T05:23:46.562Z,103283.03
2023-02-05T05:26:13.194Z,103284.69
2023-02-05T05:28:39.561Z,103283.72
2023-02-05T05:31:11.227Z,103281.84
2023-02-05T05:33:37.643Z,103275.84
2023-02-05T05:36:05.176Z,103280.94
2023-02-05T05:38:31.831Z,103271.84
2023-02-05T05:40:58.361Z,103269.44
2023-02-05T05:43:24.742Z,103275.00
2023-02-05T05:45:52.199Z,103276.59
2023-02-05T05:48:18.598Z,103283.66
2023-02-05T05:50:45.016Z,103284.63
2023-02-05T05:53:11.400Z,103280.66
2023-02-05T05:55:37.812Z,103279.81
2023-02-05T05:58:05.434Z,103267.66
2023-02-05T06:00:32.703Z,103270.31
2023-02-05T06:02:59.090Z,103257.16
2023-02-05T06:05:25.505Z,103251.00
2023-02-05T06:07:51.920Z,103256.38
2023-02-05T06:10:18.306Z,103241.41
2023-02-05T06:12:44.709Z,103232.53
2023-02-05T06:15:11.164Z,103229.91
2023-02-05T06:17:37.567Z,103226.38
2023-02-05T06:20:05.113Z,103234.34
2023-02-05T06:22:31.628Z,103228.19
2023-02-05T06:24:58.034Z,103242.16
2023-02-05T06:27:24.438Z,103251.00
2023-02-05T06:29:50.829Z,103250.03
2023-02-05T06:32:17.253Z,103244.78
2023-02-05T06:34:43.640Z,103242.16
2023-02-05T06:37:10.037Z,103242.97
2023-02-05T06:39:36.418Z,103245.59
2023-02-05T06:42:02.839Z,103241.16
2023-02-05T06:44:29.225Z,103239.38
2023-02-05T06:46:55.654Z,103249.88
2023-02-05T06:49:22.127Z,103251.59
2023-02-05T06:51:48.529Z,103260.53
2023-02-05T06:54:14.956Z,103258.88
2023-02-05T06:56:41.402Z,103256.38
2023-02-05T06:59:07.781Z,103248.31
2023-02-05T07:01:34.204Z,103252.50
2023-02-05T07:04:00.632Z,103260.13
2023-02-05T07:06:27.103Z,103259.22
2023-02-05T07:08:53.602Z,103252.25
2023-02-05T07:11:20.183Z,103250.50
2023-02-05T07:13:46.587Z,103252.34
2023-02-05T07:16:13.045Z,103243.63
2023-02-05T07:18:39.562Z,103241.75
2023-02-05T07:21:07.202Z,103232.03
2023-02-05T07:23:33.657Z,103238.22
2023-02-05T07:26:09.456Z,103246.19
2023-02-05T07:28:35.874Z,103248.88
2023-02-05T07:31:03.903Z,103251.53
2023-02-05T07:33:30.347Z,103254.13
2023-02-05T07:35:56.766Z,103255.13
2023-02-05T07:38:23.182Z,103257.22
2023-02-05T07:40:49.569Z,103258.88
2023-02-05T07:43:15.977Z,103266.16
2023-02-05T07:45:42.367Z,103260.97
2023-02-05T07:48:08.764Z,103257.59
2023-02-05T07:50:35.157Z,103250.47
2023-02-05T07:53:01.600Z,103252.34
2023-02-05T07:55:28.001Z,103252.34
2023-02-05T07:57:54.437Z,103244.41
2023-02-05T08:00:20.900Z,103241.91
2023-02-05T08:02:47.295Z,103236.72
2023-02-05T08:05:13.738Z,103239.41
2023-02-05T08:07:40.138Z,103235.97
2023-02-05T08:10:06.985Z,103234.16
2023-02-05T08:12:33.359Z,103232.50
2023-02-05T08:14:59.791Z,103238.75
2023-02-05T08:17:26.265Z,103232.94
2023-02-05T08:19:52.666Z,103244.97
2023-02-05T08:22:19.035Z,103247.53
2023-02-05T08:24:45.437Z,103242.56
2023-02-05T08:27:11.823Z,103257.66
2023-02-05T08:29:39.551Z,103262.97
2023-02-05T08:32:05.943Z,103266.50
2023-02-05T08:34:32.366Z,103274.53
2023-02-05T08:36:58.758Z,103267.78
2023-02-05T08:39:25.264Z,103272.47
2023-02-05T08:41:51.782Z,103264.75
2023-02-05T08:44:18.196Z,103271.81
2023-02-05T08:46:50.102Z,103274.50
2023-02-05T08:49:16.966Z,103279.84
2023-02-05T08:51:43.407Z,103289.56
2023-02-05T08:54:09.816Z,103288.91
2023-02-05T08:56:36.224Z,103286.44
2023-02-05T08:59:02.625Z,103285.72
2023-02-05T09:01:29.103Z,103289.47
2023-02-05T09:03:55.710Z,103291.34
2023-02-05T09:06:22.111Z,103292.38
2023-02-05T09:08:48.511Z,103293.50
2023-02-05T09:11:20.309Z,103293.84
2023-02-05T09:13:46.686Z,103298.34
2023-02-05T09:16:13.180Z,103297.66
2023-02-05T09:18:39.601Z,103305.59
2023-02-05T09:21:07.382Z,103297.66
2023-02-05T09:23:33.774Z,103294.97
2023-02-05T09:26:00.195Z,103295.72
2023-02-05T09:28:26.592Z,103288.81
2023-02-05T09:30:53.058Z,103287.81
2023-02-05T09:33:19.502Z,103288.88
2023-02-05T09:35:45.926Z,103290.72
2023-02-05T09:38:15.122Z,103291.63
2023-02-05T09:40:57.577Z,103289.22
2023-02-05T09:43:51.110Z,103290.72
2023-02-05T09:46:29.442Z,103295.94
2023-02-05T09:49:12.938Z,103288.06
2023-02-05T09:51:50.761Z,103294.31
2023-02-05T09:54:18.367Z,103291.50
2023-02-05T09:56:44.914Z,103285.59
2023-02-05T09:59:17.634Z,103297.44
2023-02-05T10:02:01.045Z,103296.84
2023-02-05T10:04:27.879Z,103305.81
2023-02-05T10:07:07.320Z,103303.25
2023-02-05T10:09:52.830Z,103304.31
2023-02-05T10:12:22.913Z,103302.81
2023-02-05T10:15:18.545Z,103307.50
2023-02-05T10:18:09.504Z,103310.44
2023-02-05T10:20:51.708Z,103309.59
2023-02-05T10:23:44.621Z,103301.84
2023-02-05T10:26:12.042Z,103303.81
2023-02-05T10:28:59.736Z,103295.09
2023-02-05T10:31:42.355Z,103307.06
2023-02-05T10:34:45.825Z,103309.09
2023-02-05T10:37:14.980Z,103320.78
2023-02-05T10:39:41.372Z,103322.72
2023-02-05T10:42:28.324Z,103317.59
2023-02-05T10:45:21.959Z,103320.38
2023-02-05T10:47:50.019Z,103320.47
2023-02-05T10:50:21.711Z,103310.66
2023-02-05T10:52:48.109Z,103321.13
2023-02-05T10:55:14.503Z,103331.75
2023-02-05T10:57:40.884Z,103337.09
2023-02-05T11:00:21.054Z,103352.16
2023-02-05T11:02:54.340Z,103350.38
2023-02-05T11:05:32.086Z,103348.56
2023-02-05T11:07:58.493Z,103357.31
2023-02-05T11:10:26.600Z,103346.00
2023-02-05T11:13:17.709Z,103349.81
2023-02-05T11:16:03.827Z,103334.16
2023-02-05T11:18:33.147Z,103333.53
2023-02-05T11:21:03.558Z,103341.75
2023-02-05T11:23:30.096Z,103349.88
2023-02-05T11:26:00.626Z,103341.09
2023-02-05T11:28:31.388Z,103333.38
2023-02-05T11:30:58.430Z,103330.97
2023-02-05T11:33:27.222Z,103342.56
2023-02-05T11:36:01.993Z,103344.44
2023-02-05T11:38:31.255Z,103355.13
2023-02-05T11:40:59.221Z,103339.56
2023-02-05T11:43:28.565Z,103352.06
2023-02-05T11:45:55.878Z,103361.88
2023-02-05T11:48:37.547Z,103357.34
2023-02-05T11:51:05.134Z,103357.28
2023-02-05T11:53:31.533Z,103360.75
2023-02-05T11:55:58.765Z,103360.00
2023-02-05T11:58:36.215Z,103361.09
2023-02-05T12:01:20.202Z,103366.25
2023-02-05T12:04:03.710Z,103360.84
2023-02-05T12:06:39.390Z,103357.50
2023-02-05T12:09:05.843Z,103344.56
2023-02-05T12:11:47.018Z,103342.28
2023-02-05T12:14:16.917Z,103338.91
2023-02-05T12:17:21.644Z,103344.44
2023-02-05T12:19:50.620Z,103360.28
2023-02-05T12:22:26.315Z,103369.56
2023-02-05T12:25:01.858Z,103373.69
2023-02-05T12:27:58.682Z,103354.22
2023-02-05T12:30:37.066Z,103341.75
2023-02-05T12:33:31.766Z,103334.53
2023-02-05T12:36:05.720Z,103334.66
2023-02-05T12:38:43.804Z,103334.72
2023-02-05T12:41:10.391Z,103321.69
2023-02-05T12:43:45.397Z,103314.38
2023-02-05T12:46:40.144Z,103308.88
2023-02-05T12:49:32.392Z,103315.44
2023-02-05T12:52:20.473Z,103317.44
2023-02-05T12:55:01.004Z,103336.69
2023-02-05T12:57:33.279Z,103357.59
2023-02-05T13:00:03.333Z,103356.47
2023-02-05T13:02:34.756Z,103351.03
2023-02-05T13:05:16.244Z,103367.56
2023-02-05T13:07:46.907Z,103358.63
2023-02-05T13:10:22.898Z,103357.63
2023-02-05T13:12:51.902Z,103363.69
2023-02-05T13:15:20.520Z,103351.19
2023-02-05T13:17:53.061Z,103354.22
2023-02-05T13:20:32.092Z,103363.41
2023-02-05T13:22:58.522Z,103362.69
2023-02-05T13:25:37.897Z,103369.97
2023-02-05T13:28:31.050Z,103371.75
2023-02-05T13:30:57.525Z,103362.19
2023-02-05T13:33:24.030Z,103372.69
2023-02-05T13:35:57.929Z,103384.34
2023-02-05T13:38:30.467Z,103392.28
2023-02-05T13:41:15.395Z,103397.50
2023-02-05T13:43:50.645Z,103386.94
2023-02-05T13:46:35.361Z,103383.44
2023-02-05T13:49:35.951Z,103380.09
2023-02-05T13:52:17.541Z,103382.69
2023-02-05T13:55:25.773Z,103395.50
2023-02-05T13:57:58.208Z,103409.69
2023-02-05T14:00:24.698Z,103415.38
2023-02-05T14:02:53.333Z,103418.81
2023-02-05T14:05:28.177Z,103417.09
2023-02-05T14:07:54.554Z,103422.50
2023-02-05T14:10:26.893Z,103411.78
2023-02-05T14:12:53.424Z,103414.59
2023-02-05T14:15:19.726Z,103407.66
2023-02-05T14:17:46.050Z,103404.38
2023-02-05T14:20:24.493Z,103416.75
2023-02-05T14:22:51.942Z,103404.53
2023-02-05T14:25:37.044Z,103395.09
2023-02-05T14:28:15.975Z,103392.50
2023-02-05T14:30:52.835Z,103383.47
2023-02-05T14:33:25.591Z,103404.66
2023-02-05T14:36:13.797Z,103415.97
2023-02-05T14:38:40.177Z,103420.97
2023-02-05T14:41:12.105Z,103409.38
2023-02-05T14:43:39.493Z,103413.69
2023-02-05T14:46:26.163Z,103416.25
2023-02-05T14:48:52.536Z,103426.81
2023-02-05T14:51:29.545Z,103444.38
2023-02-05T14:54:01.863Z,103462.63
2023-02-05T14:56:42.997Z,103466.78
2023-02-05T14:59:21.330Z,103463.16
2023-02-05T15:01:49.364Z,103470.09
2023-02-05T15:04:37.777Z,103477.88
2023-02-05T15:07:09.003Z,103471.63
2023-02-05T15:09:47.445Z,103465.50
2023-02-05T15:12:41.621Z,103458.41
2023-02-05T15:16:05.188Z,103458.34
2023-02-05T15:18:32.640Z,103456.47
2023-02-05T15:20:59.015Z,103455.56
2023-02-05T15:23:35.838Z,103451.06
2023-02-05T15:26:04.756Z,103449.31
2023-02-05T15:28:40.776Z,103451.13
2023-02-05T15:31:25.504Z,103442.53
2023-02-05T15:34:01.512Z,103446.97
2023-02-05T15:36:45.760Z,103456.69
2023-02-05T15:39:37.106Z,103467.16
2023-02-05T15:42:04.855Z,103468.69
2023-02-05T15:44:34.952Z,103466.66
2023-02-05T15:47:07.684Z,103475.09
2023-02-05T15:49:42.675Z,103474.09
2023-02-05T15:52:18.456Z,103472.16
2023-02-05T15:54:44.711Z,103480.00
2023-02-05T15:57:28.249Z,103489.41
2023-02-05T15:59:54.841Z,103489.19
2023-02-05T16:02:25.637Z,103483.97
2023-02-05T16:05:02.768Z,103486.81
2023-02-05T16:07:34.860Z,103499.94
2023-02-05T16:10:18.871Z,103499.19
2023-02-05T16:13:05.897Z,103495.63
2023-02-05T16:15:40.057Z,103508.81
2023-02-05T16:18:08.352Z,103506.81
2023-02-05T16:20:37.108Z,103501.47
2023-02-05T16:23:05.722Z,103512.00
2023-02-05T16:25:51.885Z,103521.53
2023-02-05T16:28:22.681Z,103520.34
2023-02-05T16:30:49.141Z,103519.44
2023-02-05T16:33:25.596Z,103521.38
2023-02-05T16:35:51.998Z,103528.16
2023-02-05T16:38:20.541Z,103534.22
2023-02-05T16:41:11.788Z,103546.13
2023-02-05T16:43:38.439Z,103537.47
2023-02-05T16:46:07.856Z,103543.47
2023-02-05T16:48:37.319Z,103547.94
2023-02-05T16:51:06.717Z,103542.81
2023-02-05T16:53:36.018Z,103552.13
2023-02-05T16:56:21.620Z,103551.81
2023-02-05T16:58:49.883Z,103558.00
2023-02-05T17:01:22.764Z,103549.19
2023-02-05T17:03:49.804Z,103559.88
2023-02-05T17:06:16.902Z,103563.63
2023-02-05T17:08:43.341Z,103572.50
2023-02-05T17:11:29.597Z,103583.19
2023-02-05T17:14:34.725Z,103594.63
2023-02-05T17:17:00.992Z,103600.81
2023-02-05T17:19:29.086Z,103594.56
2023-02-05T17:22:10.641Z,103584.56
2023-02-05T17:24:37.052Z,103587.13
2023-02-05T17:27:03.485Z,103583.53
2023-02-05T17:29:29.886Z,103581.19
2023-02-05T17:31:56.661Z,103588.94
2023-02-05T17:34:23.061Z,103595.59
2023-02-05T17:36:51.121Z,103605.34
2023-02-05T17:39:17.501Z,103604.47
2023-02-05T17:41:43.892Z,103609.75
2023-02-05T17:44:11.605Z,103614.16
2023-02-05T17:46:38.335Z,103609.88
2023-02-05T17:49:04.787Z,103616.03
2023-02-05T17:51:31.219Z,103619.38
2023-02-05T17:53:57.637Z,103622.78
2023-02-05T17:56:27.166Z,103630.75
2023-02-05T17:58:53.587Z,103644.13
2023-02-05T18:01:20.065Z,103649.28
2023-02-05T18:03:48.035Z,103643.13
2023-02-05T18:06:15.443Z,103642.13
2023-02-05T18:08:42.407Z,103638.34
2023-02-05T18:11:09.224Z,103638.25
2023-02-05T18:13:37.563Z,103636.47
2023-02-05T18:16:04.104Z,103640.69
2023-02-05T18:18:30.929Z,103648.69
2023-02-05T18:20:57.799Z,103649.44
2023-02-05T18:23:29.062Z,103652.06
2023-02-05T18:25:56.940Z,103645.16
2023-02-05T18:28:24.515Z,103642.78
2023-02-05T18:31:00.037Z,103639.31
2023-02-05T18:33:26.909Z,103651.31
2023-02-05T18:35:53.456Z,103665.97
2023-02-05T18:38:20.307Z,103654.53
2023-02-05T18:40:47.206Z,103656.19
2023-02-05T18:43:13.624Z,103656.88
2023-02-05T18:45:42.988Z,103652.53
2023-02-05T18:48:09.472Z,103644.53
2023-02-05T18:50:36.120Z,103645.38
2023-02-05T18:53:02.832Z,103648.00
2023-02-05T18:55:30.415Z,103654.19
2023-02-05T18:57:56.888Z,103646.94
2023-02-05T19:00:23.314Z,103651.19
2023-02-05T19:02:49.706Z,103649.88
2023-02-05T19:05:16.159Z,103654.84
2023-02-05T19:07:43.137Z,103658.84
2023-02-05T19:10:09.808Z,103664.84
2023-02-05T19:12:36.194Z,103663.94
2023-02-05T19:15:03.607Z,103672.75
2023-02-05T19:17:30.129Z,103675.38
2023-02-05T19:19:56.576Z,103680.81
2023-02-05T19:22:22.983Z,103686.97
2023-02-05T19:24:49.467Z,103689.09
2023-02-05T19:27:15.869Z,103683.97
2023-02-05T19:29:42.337Z,103687.56
2023-02-05T19:32:08.733Z,103691.88
2023-02-05T19:34:35.294Z,103697.81
2023-02-05T19:37:01.720Z,103712.84
2023-02-05T19:39:28.136Z,103713.97
2023-02-05T19:41:54.560Z,103714.88
2023-02-05T19:44:20.958Z,103720.31
2023-02-05T19:46:47.391Z,103716.03
2023-02-05T19:49:18.109Z,103727.38
2023-02-05T19:51:45.340Z,103722.13
2023-02-05T19:54:11.735Z,103719.66
2023-02-05T19:56:38.202Z,103721.28
2023-02-05T19:59:04.647Z,103726.56
2023-02-05T20:01:32.600Z,103730.19
2023-02-05T20:04:00.753Z,103731.84
2023-02-05T20:06:28.755Z,103734.47
2023-02-05T20:08:55.234Z,103733.41
2023-02-05T20:11:23.730Z,103732.31
2023-02-05T20:13:50.129Z,103735.72
2023-02-05T20:16:18.555Z,103729.31
2023-02-05T20:18:45.028Z,103723.66
2023-02-05T20:21:15.891Z,103735.69
2023-02-05T20:23:43.532Z,103725.31
2023-02-05T20:26:10.201Z,103726.78
2023-02-05T20:28:40.705Z,103731.31
2023-02-05T20:31:07.180Z,103734.94
2023-02-05T20:33:33.641Z,103731.78
2023-02-05T20:36:06.864Z,103731.38
2023-02-05T20:38:33.609Z,103726.09
2023-02-05T20:41:00.202Z,103730.59
2023-02-05T20:43:26.688Z,103735.88
2023-02-05T20:45:53.074Z,103735.94
2023-02-05T20:48:19.487Z,103727.75
2023-02-05T20:50:45.876Z,103730.06
2023-02-05T20:53:13.381Z,103743.75
2023-02-05T20:55:39.775Z,103738.16
2023-02-05T20:58:06.179Z,103751.00
2023-02-05T21:00:33.110Z,103759.22
2023-02-05T21:03:00.554Z,103760.06
2023-02-05T21:05:26.967Z,103764.75
2023-02-05T21:07:53.390Z,103767.81
2023-02-05T21:10:19.858Z,103780.56
2023-02-05T21:12:46.257Z,103781.09
2023-02-05T21:15:12.674Z,103766.97
2023-02-05T21:17:39.221Z,103764.09
2023-02-05T21:20:05.959Z,103762.19
2023-02-05T21:22:32.365Z,103760.22
2023-02-05T21:24:58.811Z,103762.84
2023-02-05T21:27:25.220Z,103764.81
2023-02-05T21:29:54.115Z,103760.97
2023-02-05T21:32:20.496Z,103763.28
2023-02-05T21:34:46.953Z,103754.81
2023-02-05T21:37:13.431Z,103758.91
2023-02-05T21:39:39.841Z,103756.03
2023-02-05T21:42:06.377Z,103755.69
2023-02-05T21:44:32.780Z,103753.44
2023-02-05T21:46:59.306Z,103762.88
2023-02-05T21:49:28.448Z,103760.00
2023-02-05T21:51:54.879Z,103771.97
2023-02-05T21:54:21.283Z,103784.69
2023-02-05T21:56:48.993Z,103791.97
2023-02-05T21:59:15.399Z,103792.59
2023-02-05T22:01:41.959Z,103793.41
2023-02-05T22:04:13.244Z,103784.53
2023-02-05T22:06:39.760Z,103781.88
2023-02-05T22:09:09.195Z,103788.97
2023-02-05T22:11:35.698Z,103791.44
2023-02-05T22:14:02.078Z,103801.84
2023-02-05T22:16:32.797Z,103794.50
2023-02-05T22:18:59.589Z,103803.31
2023-02-05T22:21:33.949Z,103794.81
2023-02-05T22:24:00.938Z,103809.25
2023-02-05T22:26:32.022Z,103806.63
2023-02-05T22:28:59.030Z,103803.19
2023-02-05T22:31:25.607Z,103803.41
2023-02-05T22:33:52.075Z,103799.31
2023-02-05T22:36:20.452Z,103791.63
2023-02-05T22:38:47.125Z,103792.25
2023-02-05T22:41:18.429Z,103789.63
2023-02-05T22:43:44.869Z,103788.19
2023-02-05T22:46:13.205Z,103797.69
2023-02-05T22:48:41.014Z,103795.78
2023-02-05T22:51:11.970Z,103803.59
2023-02-05T22:53:38.440Z,103795.78
2023-02-05T22:56:06.556Z,103794.88
2023-02-05T22:58:33.065Z,103800.22
2023-02-05T23:01:06.317Z,103799.41
2023-02-05T23:03:32.785Z,103787.81
2023-02-05T23:05:59.212Z,103791.53
2023-02-05T23:08:25.741Z,103785.28
2023-02-05T23:10:52.133Z,103788.47
2023-02-05T23:13:18.541Z,103793.34
2023-02-05T23:15:44.942Z,103791.63
2023-02-05T23:18:11.353Z,103796.78
2023-02-05T23:20:40.767Z,103797.59
2023-02-05T23:23:07.166Z,103795.97
2023-02-05T23:25:36.083Z,103795.88
2023-02-05T23:28:02.738Z,103795.06
2023-02-05T23:30:29.200Z,103791.53
2023-02-05T23:32:55.645Z,103788.81
2023-02-05T23:35:22.057Z,103784.38
2023-02-05T23:37:48.481Z,103785.22
2023-02-05T23:40:14.916Z,103792.91
2023-02-05T23:42:41.373Z,103797.34
2023-02-05T23:45:07.950Z,103804.22
2023-02-05T23:47:34.332Z,103801.59
2023-02-05T23:50:00.750Z,103802.69
2023-02-05T23:52:27.159Z,103800.97
2023-02-05T23:54:53.565Z,103795.72
2023-02-05T23:57:19.949Z,103789.63
2023-02-05T23:59:46.349Z,103791.38
